Time;durP1;ratioP1;P1;durP2;ratioP2;P2;SDS_P1;SDS_P2;PMS_P1;PMS_P2;Temp;Humidity;BMP_temperature;BMP_pressure;BME280_temperature;BME280_humidity;BME280_pressure;Samples;Min_cycle;Max_cycle;Signal;HPM_P1;HPM_P2
2023/08/16 00:01:54;;;;;;;;;2.75;2.75;;;;;22.37;57.28;101506.66;5002312;28;45400;-47
2023/08/16 00:04:19;;;;;;;;;5.00;3.00;;;;;22.38;57.75;101499.41;5002189;28;45341;-47
2023/08/16 00:06:44;;;;;;;;;32.00;26.25;;;;;22.32;57.47;101497.50;5002268;28;45352;-44
2023/08/16 00:09:10;;;;;;;;;45.33;34.67;;;;;22.37;57.25;101500.41;5001845;28;45551;-47
2023/08/16 00:11:35;;;;;;;;;27.75;20.00;;;;;22.36;57.52;101496.03;5002101;28;45388;-49
2023/08/16 00:14:00;;;;;;;;;4.50;4.50;;;;;22.34;57.57;101490.84;5002046;28;45318;-47
2023/08/16 00:16:26;;;;;;;;;5.25;3.00;;;;;22.36;57.62;101485.19;5002274;28;45211;-48
2023/08/16 00:18:51;;;;;;;;;4.50;4.50;;;;;22.37;57.25;101489.56;5002022;28;46308;-47
2023/08/16 00:21:16;;;;;;;;;5.50;4.00;;;;;22.35;57.09;101494.38;5001841;28;45160;-48
2023/08/16 00:23:42;;;;;;;;;3.00;3.00;;;;;22.34;57.33;101490.00;5001913;28;45266;-47
2023/08/16 00:26:07;;;;;;;;;7.75;4.50;;;;;22.35;57.34;101494.38;4999983;28;45295;-47
2023/08/16 00:28:32;;;;;;;;;5.00;5.00;;;;;22.32;57.66;101487.47;4997235;28;45466;-45
2023/08/16 00:30:57;;;;;;;;;4.00;4.00;;;;;22.36;57.64;101496.03;4998610;28;45432;-45
2023/08/16 00:33:23;;;;;;;;;2.00;2.00;;;;;22.37;57.67;101492.28;4998499;28;45327;-45
2023/08/16 00:35:52;;;;;;;;;7.50;5.00;;;;;22.30;57.50;101486.88;4997350;28;45361;-46
2023/08/16 00:38:18;;;;;;;;;3.00;3.00;;;;;22.35;57.86;101502.50;4997807;28;45562;-44
2023/08/16 00:40:50;;;;;;;;;5.00;5.00;;;;;22.34;58.16;101498.13;4998189;28;45466;-47
2023/08/16 00:43:16;;;;;;;;;4.40;4.40;;;;;22.35;57.94;101505.22;4998700;28;45409;-48
2023/08/16 00:45:44;;;;;;;;;3.00;3.00;;;;;22.35;57.97;101494.38;4998660;28;45893;-47
2023/08/16 00:48:09;;;;;;;;;2.80;2.80;;;;;22.32;57.66;101481.22;4998454;28;46526;-46
2023/08/16 00:50:35;;;;;;;;;7.50;4.75;;;;;22.35;58.21;101486.25;4998267;28;45227;-47
2023/08/16 00:53:01;;;;;;;;;5.25;3.75;;;;;22.33;58.07;101477.47;4998206;28;45333;-47
2023/08/16 00:55:26;;;;;;;;;5.25;4.25;;;;;22.33;57.63;101463.91;4997107;28;45673;-47
2023/08/16 00:57:52;;;;;;;;;2.75;2.75;;;;;22.30;57.64;101470.59;4998204;28;46159;-47
2023/08/16 01:00:18;;;;;;;;;6.00;4.00;;;;;22.28;57.87;101461.81;4998036;28;45338;-46
2023/08/16 01:02:44;;;;;;;;;2.50;2.00;;;;;22.28;57.92;101471.84;4998235;28;45188;-45
2023/08/16 01:05:09;;;;;;;;;3.00;3.00;;;;;22.24;57.87;101463.28;4998458;28;45450;-46
2023/08/16 01:07:35;;;;;;;;;3.50;3.50;;;;;22.27;58.36;101468.28;4997854;28;46305;-46
2023/08/16 01:10:00;;;;;;;;;4.50;3.00;;;;;22.21;57.95;101458.28;4997974;28;45410;-45
2023/08/16 01:12:36;;;;;;;;;3.50;3.50;;;;;22.22;58.13;101462.66;4998007;28;45702;-48
2023/08/16 01:15:23;;;;;;;;;3.75;3.75;;;;;22.19;57.67;101451.41;4998335;28;45497;-48
2023/08/16 01:17:50;;;;;;;;;5.60;4.00;;;;;22.17;57.70;101449.75;4998008;28;45451;-46
2023/08/16 01:20:18;;;;;;;;;3.20;3.20;;;;;22.16;58.15;101456.19;4997845;28;45325;-46
2023/08/16 01:23:03;;;;;;;;;4.20;4.20;;;;;22.14;57.39;101465.56;4997679;28;45256;-45
2023/08/16 01:25:49;;;;;;;;;5.25;3.50;;;;;22.11;57.61;101464.06;4998285;28;45293;-48
2023/08/16 01:28:17;;;;;;;;;3.40;3.40;;;;;22.02;58.26;101453.63;4997895;28;46390;-47
2023/08/16 01:30:45;;;;;;;;;2.80;2.40;;;;;22.06;57.89;101463.00;4997700;28;45512;-44
2023/08/16 01:33:12;;;;;;;;;3.80;3.00;;;;;22.03;58.05;101463.41;4998004;28;45440;-48
2023/08/16 01:35:38;;;;;;;;;3.00;3.00;;;;;22.04;58.33;101475.94;4998033;28;45448;-45
2023/08/16 01:38:04;;;;;;;;;3.80;3.80;;;;;22.02;58.30;101469.88;4996208;28;45713;-48
2023/08/16 01:40:37;;;;;;;;;3.80;3.80;;;;;22.03;58.45;101480.50;4997525;28;45529;-48
2023/08/16 01:43:06;;;;;;;;;4.80;4.00;;;;;22.03;58.39;101479.66;4997625;28;45376;-49
2023/08/16 01:45:32;;;;;;;;;4.50;4.50;;;;;21.99;57.86;101473.81;4997501;28;45455;-47
2023/08/16 01:47:59;;;;;;;;;4.50;2.50;;;;;22.02;58.38;101478.84;4997394;28;47400;-46
2023/08/16 01:50:25;;;;;;;;;3.40;2.00;;;;;21.97;58.14;101475.09;4997273;28;45493;-45
2023/08/16 01:52:51;;;;;;;;;4.00;2.75;;;;;22.02;58.24;101486.97;4997479;28;45504;-44
2023/08/16 01:55:16;;;;;;;;;2.25;2.00;;;;;22.03;58.12;101485.09;4997325;28;45558;-50
2023/08/16 01:57:42;;;;;;;;;2.75;2.75;;;;;22.04;58.04;101482.19;4997352;28;46029;-47
2023/08/16 02:00:09;;;;;;;;;2.50;2.50;;;;;22.03;58.16;101483.22;4997388;28;45387;-45
2023/08/16 02:02:36;;;;;;;;;3.00;3.00;;;;;22.00;58.30;101486.34;4997414;28;45471;-45
2023/08/16 02:05:01;;;;;;;;;4.25;3.25;;;;;22.00;57.83;101485.53;4997512;28;45595;-46
2023/08/16 02:07:27;;;;;;;;;4.75;4.00;;;;;21.94;57.67;101481.72;4997076;28;46043;-44
2023/08/16 02:09:52;;;;;;;;;2.00;2.00;;;;;21.98;57.99;101488.41;4996885;28;45677;-48
2023/08/16 02:12:17;;;;;;;;;4.75;3.50;;;;;21.97;58.60;101491.34;4997000;28;45637;-47
2023/08/16 02:14:42;;;;;;;;;2.50;2.50;;;;;21.97;58.03;101478.63;4995989;28;45403;-47
2023/08/16 02:17:08;;;;;;;;;2.25;2.25;;;;;21.93;57.83;101472.78;4997119;28;46108;-46
2023/08/16 02:19:33;;;;;;;;;4.00;2.25;;;;;21.96;57.91;101474.25;4996960;28;45477;-49
2023/08/16 02:21:58;;;;;;;;;3.50;3.00;;;;;21.96;58.15;101478.84;4996840;28;45391;-45
2023/08/16 02:24:24;;;;;;;;;3.50;2.00;;;;;21.95;58.30;101483.41;4997044;28;45459;-46
2023/08/16 02:26:49;;;;;;;;;2.00;2.00;;;;;21.92;57.94;101473.00;4996949;28;46353;-44
2023/08/16 02:29:14;;;;;;;;;6.25;2.00;;;;;21.87;57.88;101464.66;4996409;28;46239;-47
2023/08/16 02:31:40;;;;;;;;;6.50;4.00;;;;;21.90;58.08;101467.75;4997232;28;45497;-46
2023/08/16 02:34:05;;;;;;;;;4.00;2.00;;;;;21.92;58.18;101468.41;4996730;28;45262;-48
2023/08/16 02:36:30;;;;;;;;;3.50;3.50;;;;;21.92;58.44;101473.81;4995869;28;45306;-46
2023/08/16 02:38:56;;;;;;;;;2.75;2.75;;;;;21.90;58.50;101464.22;4996461;28;45408;-46
2023/08/16 02:41:21;;;;;;;;;4.00;4.00;;;;;21.92;58.78;101479.25;4996855;28;45393;-45
2023/08/16 02:43:46;;;;;;;;;2.00;2.00;;;;;21.90;58.33;101481.31;4996983;28;45328;-48
2023/08/16 02:46:12;;;;;;;;;3.50;2.75;;;;;21.90;58.38;101478.59;4996433;28;45425;-47
2023/08/16 02:48:37;;;;;;;;;3.25;1.50;;;;;21.86;58.71;101480.03;4996032;28;45440;-46
2023/08/16 02:51:03;;;;;;;;;2.00;2.00;;;;;21.86;58.55;101469.19;4996339;28;45409;-45
2023/08/16 02:53:28;;;;;;;;;2.00;2.00;;;;;21.84;58.25;101474.00;4996788;28;45396;-46
2023/08/16 02:55:54;;;;;;;;;1.75;1.00;;;;;21.84;58.23;101476.72;4996172;28;45296;-45
2023/08/16 02:58:19;;;;;;;;;3.00;3.00;;;;;21.84;57.99;101470.47;4996356;28;45264;-45
2023/08/16 03:00:44;;;;;;;;;3.25;2.00;;;;;21.80;57.92;101466.50;4996530;28;45511;-47
2023/08/16 03:03:09;;;;;;;;;3.00;3.00;;;;;21.81;58.07;101473.56;4996777;28;45318;-47
2023/08/16 03:05:35;;;;;;;;;2.75;2.00;;;;;21.81;57.93;101465.44;4995842;28;45826;-49
2023/08/16 03:08:01;;;;;;;;;2.75;2.75;;;;;21.76;57.90;101457.94;4996041;28;49229;-48
2023/08/16 03:10:26;;;;;;;;;4.00;2.75;;;;;21.77;57.52;101465.00;4996564;28;45449;-50
2023/08/16 03:12:52;;;;;;;;;1.00;1.00;;;;;21.77;57.85;101467.72;4996559;28;45377;-49
2023/08/16 03:15:17;;;;;;;;;3.00;3.00;;;;;21.76;57.88;101465.22;4996155;28;45345;-45
2023/08/16 03:17:42;;;;;;;;;1.25;1.25;;;;;21.73;57.82;101460.19;4996277;28;45461;-47
2023/08/16 03:20:09;;;;;;;;;3.75;2.00;;;;;21.71;57.39;101459.59;4996381;28;45328;-49
2023/08/16 03:22:35;;;;;;;;;6.00;3.00;;;;;21.65;57.36;101455.78;4996155;28;45401;-47
2023/08/16 03:25:00;;;;;;;;;3.00;2.00;;;;;21.65;57.68;101453.91;4995899;28;45405;-48
2023/08/16 03:27:26;;;;;;;;;3.00;2.00;;;;;21.66;57.50;101460.19;4996059;28;45368;-47
2023/08/16 03:29:51;;;;;;;;;4.25;2.75;;;;;21.63;57.28;101457.88;4995931;28;45786;-48
2023/08/16 03:32:16;;;;;;;;;2.00;2.00;;;;;21.66;57.84;101468.31;4994970;28;45438;-45
2023/08/16 03:34:42;;;;;;;;;3.25;2.50;;;;;21.63;57.30;101464.13;4995959;28;46237;-46
2023/08/16 03:37:07;;;;;;;;;2.00;2.00;;;;;21.60;57.38;101466.41;4995574;28;45435;-46
2023/08/16 03:39:33;;;;;;;;;2.50;2.50;;;;;21.59;57.32;101473.69;4995997;28;45530;-44
2023/08/16 03:41:58;;;;;;;;;2.00;2.00;;;;;21.60;57.61;101475.34;4996067;28;45334;-43
2023/08/16 03:44:24;;;;;;;;;3.00;1.75;;;;;21.55;57.17;101469.72;4995937;28;46130;-44
2023/08/16 03:46:50;;;;;;;;;2.00;2.00;;;;;21.55;57.53;101472.41;4995738;28;45314;-45
2023/08/16 03:49:15;;;;;;;;;2.00;2.00;;;;;21.55;57.62;101463.47;4995878;28;45757;-47
2023/08/16 03:51:41;;;;;;;;;1.75;1.75;;;;;21.51;57.64;101462.19;4996157;28;45504;-46
2023/08/16 03:54:06;;;;;;;;;4.75;2.75;;;;;21.48;57.28;101466.13;4995205;28;49412;-48
2023/08/16 03:56:31;;;;;;;;;1.00;1.00;;;;;21.45;57.44;101461.16;4995683;28;45375;-44
2023/08/16 03:58:57;;;;;;;;;3.50;2.00;;;;;21.38;57.57;101450.28;4995762;28;45450;-46
2023/08/16 04:01:22;;;;;;;;;2.00;2.00;;;;;21.41;58.09;101455.28;4997105;28;45321;-45
2023/08/16 04:03:48;;;;;;;;;2.50;2.00;;;;;21.38;57.55;101452.97;4998667;28;45425;-45
2023/08/16 04:06:13;;;;;;;;;2.00;2.00;;;;;21.29;58.21;101446.03;4998806;28;45381;-45
2023/08/16 04:08:39;;;;;;;;;4.00;2.50;;;;;21.34;58.08;101456.28;4999180;28;45458;-46
2023/08/16 04:11:05;;;;;;;;;1.25;1.00;;;;;21.34;58.21;101457.13;4999307;28;45397;-45
2023/08/16 04:13:32;;;;;;;;;2.75;2.25;;;;;21.32;58.03;101463.75;4998772;28;45468;-50
2023/08/16 04:15:57;;;;;;;;;2.00;1.00;;;;;21.30;58.03;101460.41;4998654;28;45393;-47
2023/08/16 04:18:23;;;;;;;;;3.00;1.25;;;;;21.30;58.30;101460.41;4998499;28;45291;-48
2023/08/16 04:20:48;;;;;;;;;2.50;2.50;;;;;21.25;57.80;101452.88;4998908;28;45214;-43
2023/08/16 04:23:13;;;;;;;;;3.00;1.75;;;;;21.23;58.34;101449.53;4998445;28;46037;-46
2023/08/16 04:25:39;;;;;;;;;1.00;1.00;;;;;21.17;58.10;101448.47;4998495;28;45288;-47
2023/08/16 04:28:05;;;;;;;;;4.00;2.25;;;;;21.17;58.65;101444.94;4997401;28;45358;-46
2023/08/16 04:30:30;;;;;;;;;3.00;3.00;;;;;21.15;57.74;101450.53;4998738;28;45548;-47
2023/08/16 04:32:55;;;;;;;;;2.75;2.00;;;;;21.12;58.04;101450.09;4998487;28;46119;-45
2023/08/16 04:35:21;;;;;;;;;2.00;2.00;;;;;21.09;58.58;101448.63;4998499;28;45442;-46
2023/08/16 04:37:46;;;;;;;;;4.00;2.00;;;;;21.06;58.88;101451.72;4998505;28;45615;-47
2023/08/16 04:40:11;;;;;;;;;3.25;3.00;;;;;21.06;58.45;101448.19;4998769;28;45373;-46
2023/08/16 04:42:37;;;;;;;;;2.25;2.25;;;;;21.03;58.40;101449.44;4998166;28;46140;-46
2023/08/16 04:45:03;;;;;;;;;2.00;2.00;;;;;21.02;59.05;101449.59;4998517;28;45357;-44
2023/08/16 04:47:29;;;;;;;;;3.40;2.00;;;;;20.99;58.63;101452.72;4998372;28;45417;-46
2023/08/16 04:49:54;;;;;;;;;3.00;2.00;;;;;20.98;58.68;101459.16;4998660;28;45337;-46
2023/08/16 04:52:20;;;;;;;;;4.50;2.75;;;;;20.96;58.79;101453.13;4998323;28;45402;-44
2023/08/16 04:54:45;;;;;;;;;2.25;2.25;;;;;20.92;59.31;101450.81;4998159;28;45346;-46
2023/08/16 04:57:11;;;;;;;;;3.50;3.00;;;;;20.95;58.79;101455.00;4998385;28;45366;-44
2023/08/16 04:59:36;;;;;;;;;2.75;2.75;;;;;20.93;59.32;101457.03;4998315;28;45314;-50
2023/08/16 05:02:02;;;;;;;;;4.00;2.25;;;;;20.93;58.90;101452.47;4998161;28;46207;-49
2023/08/16 05:04:27;;;;;;;;;1.00;1.00;;;;;20.93;59.29;101451.63;4998170;28;45459;-50
2023/08/16 05:06:52;;;;;;;;;2.75;2.50;;;;;20.95;59.13;101455.00;4998075;28;45665;-48
2023/08/16 05:09:18;;;;;;;;;3.00;3.00;;;;;20.97;59.11;101457.47;4998177;28;45516;-46
2023/08/16 05:11:43;;;;;;;;;34.67;32.00;;;;;20.97;59.50;101461.03;4997436;28;47310;-47
2023/08/16 05:14:08;;;;;;;;;5.75;5.75;;;;;20.95;59.45;101459.56;4998067;28;45334;-47
2023/08/16 05:16:34;;;;;;;;;4.75;4.00;;;;;21.00;59.43;101465.22;4997313;28;45332;-47
2023/08/16 05:19:00;;;;;;;;;3.50;2.50;;;;;21.02;59.00;101469.38;4996851;28;45374;-48
2023/08/16 05:21:25;;;;;;;;;4.00;4.00;;;;;21.04;58.95;101475.44;4997642;28;45452;-47
2023/08/16 05:23:51;;;;;;;;;3.75;3.00;;;;;21.06;59.05;101477.94;4997745;28;45441;-50
2023/08/16 05:26:16;;;;;;;;;3.00;3.00;;;;;21.07;59.29;101477.75;4997879;28;45335;-49
2023/08/16 05:28:42;;;;;;;;;5.25;3.75;;;;;21.06;59.02;101472.53;4998049;28;45410;-47
2023/08/16 05:31:08;;;;;;;;;4.25;2.75;;;;;21.06;58.98;101470.66;4997603;28;46492;-45
2023/08/16 05:33:34;;;;;;;;;3.20;3.00;;;;;20.88;59.33;101446.00;4997587;28;45397;-44
2023/08/16 05:35:59;;;;;;;;;2.00;2.00;;;;;21.10;59.36;101471.94;4997681;28;45381;-47
2023/08/16 05:38:25;;;;;;;;;5.00;3.00;;;;;21.14;58.74;101472.38;4997808;28;45387;-44
2023/08/16 05:40:51;;;;;;;;;2.00;2.00;;;;;21.09;59.14;101464.84;4997401;28;45452;-45
2023/08/16 05:43:16;;;;;;;;;4.00;2.75;;;;;21.19;58.81;101475.31;4997270;28;45350;-45
2023/08/16 05:45:41;;;;;;;;;4.00;2.00;;;;;21.21;58.78;101485.94;4997552;28;45287;-46
2023/08/16 05:48:07;;;;;;;;;3.00;2.00;;;;;21.27;58.91;101482.44;4997962;28;45332;-45
2023/08/16 05:50:34;;;;;;;;;2.75;2.75;;;;;21.29;58.32;101475.81;4997314;28;46113;-45
2023/08/16 05:52:59;;;;;;;;;3.20;2.00;;;;;21.35;58.45;101475.03;4997480;28;45411;-45
2023/08/16 05:55:24;;;;;;;;;2.00;2.00;;;;;21.36;58.58;101465.88;4997208;28;45769;-46
2023/08/16 05:57:50;;;;;;;;;2.25;2.25;;;;;21.44;58.44;101470.28;4997877;28;45433;-51
2023/08/16 06:00:16;;;;;;;;;2.75;2.75;;;;;21.52;58.13;101462.00;4997075;28;46497;-46
2023/08/16 06:02:41;;;;;;;;;3.00;3.00;;;;;21.58;58.25;101463.06;4997370;28;45345;-47
2023/08/16 06:05:07;;;;;;;;;2.50;2.50;;;;;21.64;57.85;101465.78;4997218;28;45442;-46
2023/08/16 06:07:32;;;;;;;;;2.00;2.00;;;;;21.71;58.02;101473.13;4997196;28;45376;-46
2023/08/16 06:09:58;;;;;;;;;3.00;3.00;;;;;21.78;57.26;101476.66;4996991;28;46133;-45
2023/08/16 06:12:23;;;;;;;;;2.50;2.00;;;;;21.83;57.20;101477.75;4996890;28;45354;-46
2023/08/16 06:14:48;;;;;;;;;4.00;2.00;;;;;21.89;57.23;101486.94;4997225;28;45298;-47
2023/08/16 06:17:15;;;;;;;;;2.25;2.25;;;;;21.92;57.15;101487.38;4996832;28;45525;-48
2023/08/16 06:19:40;;;;;;;;;3.00;2.50;;;;;21.96;57.07;101490.50;4996729;28;45685;-50
2023/08/16 06:22:06;;;;;;;;;3.00;3.00;;;;;21.98;56.94;101488.41;4996909;28;45341;-46
2023/08/16 06:24:34;;;;;;;;;3.50;3.00;;;;;22.03;57.27;101485.09;4995956;28;45179;-47
2023/08/16 06:26:59;;;;;;;;;4.25;3.75;;;;;22.07;57.02;101486.34;4997158;28;45283;-45
2023/08/16 06:29:25;;;;;;;;;2.75;2.75;;;;;22.10;57.26;101475.94;4995267;28;46348;-43
2023/08/16 06:31:50;;;;;;;;;7.00;3.75;;;;;22.15;56.95;101489.75;4996762;28;45339;-45
2023/08/16 06:34:16;;;;;;;;;3.00;3.00;;;;;22.20;57.17;101489.13;4996654;28;45451;-47
2023/08/16 06:36:42;;;;;;;;;4.75;4.00;;;;;22.21;57.08;101492.69;4996869;28;45275;-47
2023/08/16 06:39:08;;;;;;;;;6.00;4.00;;;;;22.22;57.11;101491.66;4996551;28;46791;-45
2023/08/16 06:41:33;;;;;;;;;5.00;5.00;;;;;22.14;57.06;101476.41;4996268;28;49018;-44
2023/08/16 06:43:59;;;;;;;;;6.00;5.00;;;;;22.19;57.30;101489.34;4996665;28;45436;-45
2023/08/16 06:46:24;;;;;;;;;3.00;3.00;;;;;22.19;57.21;101495.59;4996685;28;45891;-46
2023/08/16 06:48:50;;;;;;;;;6.50;5.25;;;;;22.24;57.34;101486.84;4996212;28;49698;-49
2023/08/16 06:51:15;;;;;;;;;4.00;4.00;;;;;22.28;57.62;101482.69;4996323;28;45297;-46
2023/08/16 06:53:43;;;;;;;;;5.00;5.00;;;;;22.32;57.41;101484.75;4996385;28;45396;-48
2023/08/16 06:56:08;;;;;;;;;4.00;4.00;;;;;22.47;56.99;101494.59;4996436;28;45509;-43
2023/08/16 06:58:34;;;;;;;;;4.00;4.00;;;;;22.65;56.88;101500.25;4996102;28;46368;-46
2023/08/16 07:00:59;;;;;;;;;15.75;10.75;;;;;22.87;56.11;101498.16;4996322;28;45275;-46
2023/08/16 07:03:24;;;;;;;;;12.25;10.25;;;;;23.19;55.60;101495.66;4996122;28;45431;-46
2023/08/16 07:05:51;;;;;;;;;9.50;7.25;;;;;23.52;54.95;101499.13;4996733;28;45345;-43
2023/08/16 07:08:16;;;;;;;;;8.40;6.80;;;;;24.42;53.22;101501.84;4995949;28;47146;-43
2023/08/16 07:10:43;;;;;;;;;17.25;14.25;;;;;25.55;50.89;101490.75;4996127;28;45386;-44
2023/08/16 07:13:08;;;;;;;;;15.80;13.00;;;;;26.51;48.18;101483.59;4996120;28;45448;-45
2023/08/16 07:15:34;;;;;;;;;9.50;7.00;;;;;27.06;47.21;101487.91;4996038;28;45475;-46
2023/08/16 07:18:00;;;;;;;;;34.75;29.25;;;;;27.33;46.79;101491.81;4996185;28;46395;-44
2023/08/16 07:20:25;;;;;;;;;13.40;8.80;;;;;27.26;45.87;101458.34;4995813;28;45422;-45
2023/08/16 07:22:51;;;;;;;;;15.25;12.25;;;;;27.58;46.12;101493.44;4995894;28;45376;-44
2023/08/16 07:25:16;;;;;;;;;8.25;7.25;;;;;27.60;46.32;101492.13;4994858;28;45499;-43
2023/08/16 07:27:41;;;;;;;;;7.75;7.75;;;;;27.36;45.96;101488.63;4995919;28;46157;-50
2023/08/16 07:30:07;;;;;;;;;7.25;6.00;;;;;27.06;46.47;101483.28;4995876;28;45327;-47
2023/08/16 07:32:32;;;;;;;;;7.25;5.25;;;;;26.95;47.24;101488.72;4995885;28;45338;-46
2023/08/16 07:34:58;;;;;;;;;10.25;5.50;;;;;26.78;47.11;101483.16;4996996;28;45227;-47
2023/08/16 07:37:28;;;;;;;;;4.50;4.25;;;;;26.88;47.14;101488.84;4999039;28;45504;-46
2023/08/16 07:39:53;;;;;;;;;16.20;13.20;;;;;27.04;46.83;101479.09;4999304;28;45541;-47
2023/08/16 07:42:19;;;;;;;;;7.75;6.50;;;;;27.28;46.61;101477.22;4999400;28;45386;-45
2023/08/16 07:44:44;;;;;;;;;6.00;4.75;;;;;27.62;45.65;101483.69;4999481;28;45537;-47
2023/08/16 07:47:11;;;;;;;;;4.00;4.00;;;;;27.99;45.16;101475.97;4999126;28;45474;-45
2023/08/16 07:49:36;;;;;;;;;6.60;4.20;;;;;28.36;44.39;101475.56;4999140;28;45341;-45
2023/08/16 07:52:02;;;;;;;;;4.50;4.25;;;;;28.81;43.74;101463.69;4999135;28;45523;-46
2023/08/16 07:54:27;;;;;;;;;5.00;5.00;;;;;29.38;42.36;101468.91;4999428;28;45299;-46
2023/08/16 07:56:53;;;;;;;;;8.00;5.25;;;;;29.90;41.86;101468.44;4998869;28;46149;-47
2023/08/16 07:59:18;;;;;;;;;4.50;4.00;;;;;30.42;40.95;101476.09;4999147;28;45365;-47
2023/08/16 08:01:45;;;;;;;;;3.75;2.50;;;;;31.12;39.14;101470.56;4999248;28;45318;-48
2023/08/16 08:04:11;;;;;;;;;2.60;2.60;;;;;32.34;37.06;101470.16;4999458;28;45372;-48
2023/08/16 08:06:36;;;;;;;;;5.50;3.00;;;;;34.21;35.06;101450.53;4998957;28;45274;-47
2023/08/16 08:09:02;;;;;;;;;5.25;2.25;;;;;36.28;31.42;101464.13;4998929;28;45381;-48
2023/08/16 08:11:28;;;;;;;;;3.00;3.00;;;;;37.76;29.90;101466.84;4998959;28;45492;-48
2023/08/16 08:13:53;;;;;;;;;3.00;2.00;;;;;38.98;27.56;101462.97;4997908;28;45428;-46
2023/08/16 08:16:18;;;;;;;;;4.00;3.25;;;;;39.93;26.67;101476.28;4998586;28;46279;-46
2023/08/16 08:18:44;;;;;;;;;3.25;3.25;;;;;40.69;25.94;101481.28;4998747;28;45434;-47
2023/08/16 08:21:10;;;;;;;;;3.75;2.50;;;;;41.45;24.74;101482.47;4998821;28;45418;-45
2023/08/16 08:23:35;;;;;;;;;2.60;2.40;;;;;42.42;24.11;101484.94;4998748;28;45473;-44
2023/08/16 08:26:01;;;;;;;;;3.75;3.75;;;;;43.30;22.85;101477.97;4998406;28;46446;-48
2023/08/16 08:28:26;;;;;;;;;5.00;4.75;;;;;43.89;21.66;101470.97;4998437;28;45384;-45
2023/08/16 08:30:52;;;;;;;;;6.00;3.00;;;;;44.77;21.38;101485.84;4997705;28;45756;-46
2023/08/16 08:33:18;;;;;;;;;4.40;4.40;;;;;45.44;20.84;101485.91;4998775;28;45545;-46
2023/08/16 08:35:43;;;;;;;;;11.75;11.75;;;;;46.02;19.85;101493.59;4998682;28;46227;-45
2023/08/16 08:38:08;;;;;;;;;4.75;3.00;;;;;46.53;20.21;101490.56;4998500;28;45342;-47
2023/08/16 08:40:34;;;;;;;;;6.75;3.50;;;;;47.02;19.44;101495.44;4997285;28;45394;-46
2023/08/16 08:42:59;;;;;;;;;4.25;2.50;;;;;47.33;19.82;101490.72;4998770;28;45319;-46
2023/08/16 08:45:29;;;;;;;;;2.25;2.25;;;;;47.83;19.13;101497.00;4998160;28;46168;-44
2023/08/16 08:47:57;;;;;;;;;3.40;3.40;;;;;48.21;17.98;101505.16;4997862;28;45822;-46
2023/08/16 08:50:23;;;;;;;;;5.00;4.40;;;;;48.47;18.10;101506.25;4998575;28;45439;-46
2023/08/16 08:52:51;;;;;;;;;2.75;2.75;;;;;48.19;18.02;101501.91;4998499;28;45446;-46
2023/08/16 08:55:18;;;;;;;;;3.40;3.20;;;;;48.52;17.38;101500.25;4997918;28;46221;-46
2023/08/16 08:57:50;;;;;;;;;2.80;2.80;;;;;48.13;18.15;101508.31;4998092;28;45397;-45
2023/08/16 09:00:18;;;;;;;;;1.60;1.00;;;;;47.87;18.26;101495.84;4998257;28;45359;-46
2023/08/16 09:02:46;;;;;;;;;2.40;2.40;;;;;47.84;18.35;101493.03;4998489;28;45440;-46
2023/08/16 09:05:13;;;;;;;;;4.60;3.00;;;;;48.35;18.12;101500.88;4998103;28;46453;-46
2023/08/16 09:07:41;;;;;;;;;2.00;2.00;;;;;49.14;17.31;101500.41;4997625;28;45294;-46
2023/08/16 09:10:08;;;;;;;;;2.20;2.00;;;;;49.81;17.14;101485.00;4998150;28;45466;-45
2023/08/16 09:12:34;;;;;;;;;1.80;1.80;;;;;50.07;17.19;101483.91;4998153;28;45387;-46
2023/08/16 09:14:59;;;;;;;;;2.80;1.00;;;;;50.01;17.34;101482.66;4997586;28;46969;-45
2023/08/16 09:17:25;;;;;;;;;3.75;2.00;;;;;49.67;17.18;101488.59;4997851;28;45332;-46
2023/08/16 09:19:50;;;;;;;;;5.00;2.50;;;;;49.39;17.35;101492.06;4997870;28;45379;-47
2023/08/16 09:22:16;;;;;;;;;4.00;2.50;;;;;49.04;18.27;101484.16;4998082;28;45468;-46
2023/08/16 09:24:44;;;;;;;;;3.40;3.40;;;;;48.40;17.70;101490.06;4997940;28;46111;-47
2023/08/16 09:27:10;;;;;;;;;2.20;2.20;;;;;47.71;17.74;101469.91;4997671;28;45306;-47
2023/08/16 09:29:39;;;;;;;;;3.40;3.40;;;;;46.93;19.38;101486.44;4997965;28;45488;-44
2023/08/16 09:32:07;;;;;;;;;3.00;3.00;;;;;45.97;19.92;101491.84;4997989;28;45365;-46
2023/08/16 09:34:32;;;;;;;;;2.60;2.60;;;;;44.76;20.55;101475.81;4997561;28;46108;-47
2023/08/16 09:37:00;;;;;;;;;1.50;1.50;;;;;43.27;22.24;101483.44;4997602;28;45366;-46
2023/08/16 09:39:26;;;;;;;;;5.80;2.80;;;;;41.86;23.04;101478.91;4997664;28;45373;-47
2023/08/16 09:41:52;;;;;;;;;3.20;3.20;;;;;40.71;24.47;101489.31;4997807;28;45420;-49
2023/08/16 09:44:18;;;;;;;;;3.25;2.75;;;;;39.65;25.57;101472.97;4997493;28;46338;-44
2023/08/16 09:46:44;;;;;;;;;3.80;2.00;;;;;38.69;25.99;101469.03;4997735;28;45472;-45
2023/08/16 09:49:10;;;;;;;;;5.75;3.00;;;;;37.74;27.85;101468.28;4997590;28;45317;-46
2023/08/16 09:51:43;;;;;;;;;5.00;3.00;;;;;37.05;28.77;101473.91;4997544;28;45420;-44
2023/08/16 09:54:13;;;;;;;;;2.60;2.60;;;;;36.56;29.47;101469.78;4997235;28;46569;-47
2023/08/16 09:56:40;;;;;;;;;4.80;2.60;;;;;36.36;29.86;101473.69;4997118;28;45265;-44
2023/08/16 09:59:09;;;;;;;;;4.60;3.00;;;;;36.25;30.36;101467.53;4996291;28;45439;-46
2023/08/16 10:01:35;;;;;;;;;3.80;2.80;;;;;36.20;30.22;101462.88;4997655;28;45399;-44
2023/08/16 10:04:02;;;;;;;;;5.40;2.00;;;;;36.21;29.57;101449.84;4996974;28;46094;-44
2023/08/16 10:06:31;;;;;;;;;6.00;3.00;;;;;36.16;30.15;101445.22;4996971;28;45385;-46
2023/08/16 10:08:57;;;;;;;;;4.80;3.80;;;;;36.17;29.92;101432.19;4997224;28;45428;-46
2023/08/16 10:11:23;;;;;;;;;1.60;1.00;;;;;36.15;29.88;101431.66;4997115;28;45440;-47
2023/08/16 10:13:49;;;;;;;;;2.80;2.80;;;;;36.04;29.95;101421.91;4996834;28;45750;-42
2023/08/16 10:16:15;;;;;;;;;1.40;1.20;;;;;36.04;29.74;101421.91;4996852;28;45469;-45
2023/08/16 10:18:43;;;;;;;;;2.00;2.00;;;;;36.26;29.79;101422.06;4997101;28;45445;-46
2023/08/16 10:21:15;;;;;;;;;4.20;2.60;;;;;36.44;29.44;101421.22;4996967;28;45716;-46
2023/08/16 10:23:41;;;;;;;;;2.60;2.60;;;;;36.81;28.67;101429.69;4996855;28;46726;-45
2023/08/16 10:26:12;;;;;;;;;4.00;2.00;;;;;37.16;28.35;101425.38;4996696;28;45472;-45
2023/08/16 10:28:39;;;;;;;;;3.00;3.00;;;;;37.61;27.69;101431.09;4996868;28;45409;-45
2023/08/16 10:31:07;;;;;;;;;2.80;2.80;;;;;37.97;27.66;101422.78;4997088;28;45459;-44
2023/08/16 10:33:38;;;;;;;;;1.60;1.60;;;;;38.19;27.18;101425.53;4996564;28;46914;-46
2023/08/16 10:36:04;;;;;;;;;4.60;2.40;;;;;38.40;27.85;101425.88;4996583;28;45373;-46
2023/08/16 10:38:41;;;;;;;;;2.00;2.00;;;;;38.44;27.23;101421.31;4996652;28;45413;-45
2023/08/16 10:41:15;;;;;;;;;2.40;2.40;;;;;38.47;26.58;101414.28;4996787;28;45340;-43
2023/08/16 10:43:49;;;;;;;;;1.20;1.20;;;;;38.44;26.61;101412.16;4996716;28;45620;-45
2023/08/16 10:46:31;;;;;;;;;2.00;2.00;;;;;38.59;26.43;101433.97;4996718;28;45435;-49
2023/08/16 10:49:02;;;;;;;;;1.40;1.40;;;;;38.57;26.32;101427.91;4996608;28;45481;-48
2023/08/16 10:51:28;;;;;;;;;1.80;1.80;;;;;38.57;26.53;101421.53;4996650;28;45354;-46
2023/08/16 10:53:58;;;;;;;;;3.00;2.00;;;;;38.55;26.75;101426.59;4995972;28;46611;-46
2023/08/16 10:56:23;;;;;;;;;3.00;3.00;;;;;38.62;26.47;101424.16;4996208;28;45487;-47
2023/08/16 10:58:51;;;;;;;;;8.50;6.50;;;;;38.63;26.00;101417.47;4996284;28;45372;-46
2023/08/16 11:01:18;;;;;;;;;2.00;2.00;;;;;38.48;26.22;101415.94;4996502;28;45555;-46
2023/08/16 11:03:44;;;;;;;;;3.00;2.20;;;;;38.53;26.36;101412.19;4996173;28;45477;-45
2023/08/16 11:06:11;;;;;;;;;1.80;1.80;;;;;38.59;26.38;101405.34;4996173;28;45353;-46
2023/08/16 11:08:44;;;;;;;;;1.00;1.00;;;;;38.50;27.05;101393.38;4996323;28;45390;-45
2023/08/16 11:11:11;;;;;;;;;4.00;4.00;;;;;38.44;26.57;101399.06;4995811;28;45252;-43
2023/08/16 11:13:40;;;;;;;;;4.20;2.00;;;;;38.31;26.12;101405.50;4995947;28;47198;-45
2023/08/16 11:16:09;;;;;;;;;2.00;2.00;;;;;38.40;26.52;101397.25;4995958;28;45404;-44
2023/08/16 11:18:36;;;;;;;;;1.60;1.60;;;;;38.38;26.87;101393.97;4996313;28;45362;-46
2023/08/16 11:21:03;;;;;;;;;4.80;4.00;;;;;38.40;26.47;101397.25;4996371;28;45458;-45